createdAt,value
2019-05-12T00:00:43.707Z,95696.54
2019-05-12T00:03:12.328Z,95701.47
2019-05-12T00:05:41.173Z,95702.61
2019-05-12T00:08:09.781Z,95702.19
2019-05-12T00:10:38.957Z,95701.56
2019-05-12T00:13:08.301Z,95700.23
2019-05-12T00:15:38.519Z,95698.89
2019-05-12T00:18:09.119Z,95700.20
2019-05-12T00:20:38.647Z,95707.95
2019-05-12T00:23:23.093Z,95711.72
2019-05-12T00:25:38.746Z,95717.53
2019-05-12T00:28:07.924Z,95718.83
2019-05-12T00:30:39.653Z,95718.00
2019-05-12T00:33:09.207Z,95712.66
2019-05-12T00:35:38.339Z,95723.39
2019-05-12T00:38:09.127Z,95726.00
2019-05-12T00:40:39.213Z,95731.03
2019-05-12T00:43:08.769Z,95722.70
2019-05-12T00:45:38.557Z,95731.96
2019-05-12T00:48:09.268Z,95744.16
2019-05-12T00:50:38.334Z,95731.81
2019-05-12T00:53:09.121Z,95734.13
2019-05-12T00:55:38.232Z,95735.43
2019-05-12T00:58:08.211Z,95739.08
2019-05-12T01:00:40.668Z,95744.16
2019-05-12T01:03:08.950Z,95750.23
2019-05-12T01:05:38.283Z,95748.60
2019-05-12T01:08:09.124Z,95757.13
2019-05-12T01:10:38.933Z,95756.37
2019-05-12T01:13:08.784Z,95762.93
2019-05-12T01:15:38.084Z,95770.61
2019-05-12T01:18:09.468Z,95775.13
2019-05-12T01:20:38.976Z,95774.64
2019-05-12T01:23:08.481Z,95774.23
2019-05-12T01:25:39.419Z,95770.42
2019-05-12T01:28:08.896Z,95775.47
2019-05-12T01:30:38.990Z,95786.05
2019-05-12T01:33:08.700Z,95778.00
2019-05-12T01:35:38.719Z,95781.71
2019-05-12T01:38:08.322Z,95781.09
2019-05-12T01:40:39.402Z,95790.80
2019-05-12T01:43:08.566Z,95791.59
2019-05-12T01:45:38.179Z,95795.06
2019-05-12T01:48:08.751Z,95797.39
2019-05-12T01:50:38.713Z,95803.66
2019-05-12T01:53:08.351Z,95807.22
2019-05-12T01:55:38.570Z,95809.78
2019-05-12T01:58:08.384Z,95805.12
2019-05-12T02:00:38.681Z,95808.52
2019-05-12T02:03:09.066Z,95819.94
2019-05-12T02:05:39.872Z,95819.63
2019-05-12T02:08:12.319Z,95814.81
2019-05-12T02:10:40.994Z,95819.94
2019-05-12T02:13:09.947Z,95829.69
2019-05-12T02:15:38.611Z,95823.09
2019-05-12T02:18:09.141Z,95830.80
2019-05-12T02:20:38.374Z,95827.70
2019-05-12T02:23:08.875Z,95825.27
2019-05-12T02:25:38.241Z,95833.16
2019-05-12T02:28:09.134Z,95828.45
2019-05-12T02:30:41.323Z,95840.36
2019-05-12T02:33:07.775Z,95840.14
2019-05-12T02:35:36.369Z,95835.00
2019-05-12T02:38:05.416Z,95847.65
2019-05-12T02:40:34.902Z,95853.81
2019-05-12T02:43:05.396Z,95866.49
2019-05-12T02:45:35.610Z,95869.87
2019-05-12T02:48:05.419Z,95866.73
2019-05-12T02:50:36.404Z,95859.48
2019-05-12T02:53:06.185Z,95869.34
2019-05-12T02:55:35.946Z,95867.72
2019-05-12T02:58:05.972Z,95879.31
2019-05-12T03:00:35.839Z,95878.78
2019-05-12T03:03:06.226Z,95882.89
2019-05-12T03:05:35.821Z,95880.72
2019-05-12T03:08:05.205Z,95883.73
2019-05-12T03:10:36.050Z,95888.16
2019-05-12T03:13:04.915Z,95902.11
2019-05-12T03:15:36.540Z,95893.41
2019-05-12T03:18:06.293Z,95893.17
2019-05-12T03:20:35.581Z,95906.83
2019-05-12T03:23:05.854Z,95904.03
2019-05-12T03:25:36.466Z,95908.52
2019-05-12T03:28:08.896Z,95906.66
2019-05-12T03:30:39.383Z,95916.13
2019-05-12T03:33:10.407Z,95907.45
2019-05-12T03:35:42.281Z,95907.94
2019-05-12T03:38:07.352Z,95917.19
2019-05-12T03:40:38.628Z,95916.27
2019-05-12T03:43:06.598Z,95931.22
2019-05-12T03:45:36.227Z,95927.55
2019-05-12T03:48:05.492Z,95931.61
2019-05-12T03:50:35.371Z,95933.67
2019-05-12T03:53:09.918Z,95929.92
2019-05-12T03:55:40.429Z,95932.34
2019-05-12T03:58:06.003Z,95936.02
2019-05-12T04:00:35.735Z,95936.83
2019-05-12T04:03:05.249Z,95939.89
2019-05-12T04:05:35.144Z,95951.23
2019-05-12T04:08:05.452Z,95950.56
2019-05-12T04:10:35.674Z,95956.77
2019-05-12T04:13:05.031Z,95960.69
2019-05-12T04:15:34.976Z,95967.78
2019-05-12T04:18:05.711Z,95969.44
2019-05-12T04:20:35.902Z,95978.24
2019-05-12T04:23:06.156Z,95981.09
2019-05-12T04:25:51.740Z,95982.30
2019-05-12T04:28:05.863Z,95988.43
2019-05-12T04:30:35.581Z,95996.29
2019-05-12T04:33:05.325Z,96005.97
2019-05-12T04:35:35.275Z,96006.59
2019-05-12T04:38:05.105Z,96013.86
2019-05-12T04:40:35.936Z,96018.84
2019-05-12T04:43:06.255Z,96023.01
2019-05-12T04:45:35.403Z,96017.73
2019-05-12T04:48:05.577Z,96022.78
2019-05-12T04:50:35.718Z,96027.31
2019-05-12T04:53:06.255Z,96025.23
2019-05-12T04:55:36.250Z,96022.58
2019-05-12T04:58:05.683Z,96032.30
2019-05-12T05:00:35.574Z,96033.52
2019-05-12T05:03:05.519Z,96033.05
2019-05-12T05:05:35.727Z,96034.38
2019-05-12T05:08:05.377Z,96043.98
2019-05-12T05:10:34.662Z,96043.53
2019-05-12T05:13:05.184Z,96042.66
2019-05-12T05:15:35.120Z,96049.48
2019-05-12T05:18:06.303Z,96054.88
2019-05-12T05:20:34.866Z,96062.52
2019-05-12T05:23:04.241Z,96062.39
2019-05-12T05:25:34.166Z,96070.25
2019-05-12T05:28:03.950Z,96074.38
2019-05-12T05:30:33.917Z,96074.24
2019-05-12T05:33:04.564Z,96081.04
2019-05-12T05:35:39.008Z,96074.00
2019-05-12T05:38:04.727Z,96070.91
2019-05-12T05:40:35.632Z,96083.48
2019-05-12T05:43:12.505Z,96082.09
2019-05-12T05:45:35.202Z,96099.88
2019-05-12T05:48:05.606Z,96101.03
2019-05-12T05:50:34.582Z,96108.22
2019-05-12T05:53:03.930Z,96112.67
2019-05-12T05:55:34.288Z,96119.41
2019-05-12T05:58:08.454Z,96127.98
2019-05-12T06:00:38.789Z,96127.08
2019-05-12T06:03:05.730Z,96116.60
2019-05-12T06:05:38.468Z,96120.20
2019-05-12T06:10:40.620Z,96125.87
2019-05-12T06:13:09.380Z,96128.16
2019-05-12T06:15:40.800Z,96131.59
2019-05-12T06:18:08.815Z,96142.33
2019-05-12T06:20:38.314Z,96146.78
2019-05-12T06:23:07.062Z,96141.23
2019-05-12T06:25:45.938Z,96158.34
2019-05-12T06:28:08.722Z,96158.91
2019-05-12T06:33:13.817Z,96175.59
2019-05-12T06:35:45.074Z,96173.35
2019-05-12T06:38:13.600Z,96174.85
2019-05-12T06:40:45.415Z,96182.57
2019-05-12T06:43:13.905Z,96173.13
2019-05-12T06:45:45.583Z,96183.37
2019-05-12T06:48:14.018Z,96186.32
2019-05-12T06:50:44.162Z,96181.29
2019-05-12T06:53:13.961Z,96186.03
2019-05-12T06:55:43.303Z,96185.05
2019-05-12T06:58:14.042Z,96189.89
2019-05-12T07:00:43.745Z,96191.76
2019-05-12T07:03:14.305Z,96203.27
2019-05-12T07:05:45.226Z,96213.52
2019-05-12T07:08:17.859Z,96220.23
2019-05-12T07:10:46.833Z,96220.45
2019-05-12T07:13:22.817Z,96225.63
2019-05-12T07:15:44.737Z,96228.06
2019-05-12T07:18:17.672Z,96226.30
2019-05-12T07:20:45.302Z,96232.58
2019-05-12T07:23:14.370Z,96237.56
2019-05-12T07:25:44.473Z,96239.67
2019-05-12T07:28:14.416Z,96240.42
2019-05-12T07:30:44.165Z,96242.94
2019-05-12T07:33:14.572Z,96246.13
2019-05-12T07:35:44.540Z,96245.98
2019-05-12T07:38:20.860Z,96262.52
2019-05-12T07:40:46.387Z,96265.56
2019-05-12T07:43:20.344Z,96263.02
2019-05-12T07:45:47.025Z,96260.88
2019-05-12T07:48:15.893Z,96265.39
2019-05-12T07:50:44.537Z,96265.39
2019-05-12T07:53:14.482Z,96250.34
2019-05-12T07:55:47.581Z,96257.58
2019-05-12T07:58:18.489Z,96266.39
2019-05-12T08:00:44.419Z,96272.14
2019-05-12T08:03:19.128Z,96272.25
2019-05-12T08:05:44.001Z,96268.53
2019-05-12T08:08:14.512Z,96260.13
2019-05-12T08:10:44.337Z,96265.09
2019-05-12T08:13:14.871Z,96270.97
2019-05-12T08:15:45.699Z,96267.18
2019-05-12T08:18:14.111Z,96267.83
2019-05-12T08:20:43.524Z,96265.27
2019-05-12T08:23:14.070Z,96251.61
2019-05-12T08:25:43.752Z,96258.75
2019-05-12T08:28:18.318Z,96265.08
2019-05-12T08:30:47.391Z,96267.23
2019-05-12T08:33:14.582Z,96269.02
2019-05-12T08:35:44.019Z,96273.45
2019-05-12T08:38:14.507Z,96266.50
2019-05-12T08:40:46.449Z,96278.53
2019-05-12T08:43:14.865Z,96275.75
2019-05-12T08:45:44.307Z,96283.69
2019-05-12T08:48:21.434Z,96280.28
2019-05-12T08:50:46.169Z,96280.59
2019-05-12T08:53:20.456Z,96265.77
2019-05-12T08:55:44.540Z,96281.64
2019-05-12T08:58:29.628Z,96279.81
2019-05-12T09:00:49.746Z,96287.25
2019-05-12T09:03:20.227Z,96287.88
2019-05-12T09:05:45.988Z,96289.48
2019-05-12T09:08:16.184Z,96287.19
2019-05-12T09:10:45.253Z,96285.94
2019-05-12T09:13:14.518Z,96292.84
2019-05-12T09:15:43.755Z,96285.02
2019-05-12T09:18:14.528Z,96283.75
2019-05-12T09:20:48.799Z,96282.08
2019-05-12T09:23:13.812Z,96282.03
2019-05-12T09:25:45.355Z,96290.97
2019-05-12T09:28:13.871Z,96303.35
2019-05-12T09:30:46.044Z,96309.67
2019-05-12T09:33:14.009Z,96327.46
2019-05-12T09:35:43.733Z,96325.10
2019-05-12T09:38:21.284Z,96317.83
2019-05-12T09:40:43.878Z,96308.62
2019-05-12T09:43:13.763Z,96310.55
2019-05-12T09:45:52.083Z,96311.08
2019-05-12T09:48:14.130Z,96317.27
2019-05-12T09:50:46.170Z,96323.95
2019-05-12T09:53:14.370Z,96325.90
2019-05-12T09:55:43.970Z,96318.88
2019-05-12T09:58:15.806Z,96322.66
2019-05-12T10:00:43.508Z,96326.45
2019-05-12T10:03:13.877Z,96339.23
2019-05-12T10:05:44.266Z,96334.12
2019-05-12T10:08:13.887Z,96333.33
2019-05-12T10:10:46.763Z,96337.94
2019-05-12T10:13:14.271Z,96335.80
2019-05-12T10:15:42.869Z,96350.92
2019-05-12T10:18:12.073Z,96356.61
2019-05-12T10:20:43.913Z,96351.15
2019-05-12T10:23:18.266Z,96364.17
2019-05-12T10:25:44.634Z,96362.96
2019-05-12T10:28:15.785Z,96360.52
2019-05-12T10:30:47.318Z,96359.14
2019-05-12T10:33:13.893Z,96368.20
2019-05-12T10:35:43.862Z,96381.59
2019-05-12T10:38:13.647Z,96377.54
2019-05-12T10:40:44.476Z,96385.17
2019-05-12T10:43:12.905Z,96388.83
2019-05-12T10:45:44.059Z,96374.78
2019-05-12T10:48:14.138Z,96377.61
2019-05-12T10:50:44.243Z,96373.87
2019-05-12T10:53:15.802Z,96372.56
2019-05-12T10:55:44.155Z,96376.31
2019-05-12T10:58:14.538Z,96389.72
2019-05-12T11:00:44.346Z,96393.13
2019-05-12T11:03:15.446Z,96396.47
2019-05-12T11:05:44.118Z,96391.83
2019-05-12T11:08:14.268Z,96388.03
2019-05-12T11:10:43.303Z,96384.89
2019-05-12T11:13:14.527Z,96372.24
2019-05-12T11:15:46.215Z,96376.42
2019-05-12T11:18:20.640Z,96382.98
2019-05-12T11:20:47.756Z,96385.88
2019-05-12T11:23:16.412Z,96375.95
2019-05-12T11:25:45.155Z,96383.50
2019-05-12T11:28:14.163Z,96386.30
2019-05-12T11:30:43.704Z,96396.37
2019-05-12T11:33:12.536Z,96397.58
2019-05-12T11:35:43.343Z,96399.94
2019-05-12T11:38:13.474Z,96410.98
2019-05-12T11:40:43.731Z,96409.81
2019-05-12T11:43:14.312Z,96402.13
2019-05-12T11:45:44.180Z,96396.25
2019-05-12T11:48:14.366Z,96408.59
2019-05-12T11:50:49.390Z,96405.41
2019-05-12T11:53:13.870Z,96405.47
2019-05-12T11:55:43.728Z,96396.02
2019-05-12T11:58:12.554Z,96403.37
2019-05-12T12:00:44.108Z,96404.63
2019-05-12T12:03:17.000Z,96408.34
2019-05-12T12:05:44.312Z,96417.43
2019-05-12T12:08:14.514Z,96420.94
2019-05-12T12:10:43.493Z,96429.36
2019-05-12T12:13:14.107Z,96424.61
2019-05-12T12:15:42.421Z,96424.39
2019-05-12T12:18:13.452Z,96422.82
2019-05-12T12:20:44.250Z,96432.66
2019-05-12T12:23:14.079Z,96416.48
2019-05-12T12:25:47.809Z,96427.23
2019-05-12T12:28:13.716Z,96441.94
2019-05-12T12:30:47.428Z,96438.52
2019-05-12T12:33:14.371Z,96435.31
2019-05-12T12:35:44.507Z,96437.25
2019-05-12T12:38:14.227Z,96439.04
2019-05-12T12:40:44.203Z,96433.55
2019-05-12T12:43:13.754Z,96437.78
2019-05-12T12:45:48.368Z,96436.66
2019-05-12T12:48:19.195Z,96438.28
2019-05-12T12:50:47.425Z,96443.23
2019-05-12T12:53:16.075Z,96451.91
2019-05-12T12:55:45.239Z,96447.11
2019-05-12T12:58:14.184Z,96446.59
2019-05-12T13:00:47.819Z,96441.40
2019-05-12T13:03:14.440Z,96447.63
2019-05-12T13:05:43.837Z,96448.24
2019-05-12T13:08:12.598Z,96447.37
2019-05-12T13:10:49.481Z,96451.66
2019-05-12T13:13:14.217Z,96444.09
2019-05-12T13:15:44.396Z,96453.25
2019-05-12T13:18:17.451Z,96459.89
2019-05-12T13:20:43.981Z,96462.66
2019-05-12T13:23:14.142Z,96461.61
2019-05-12T13:25:50.418Z,96472.80
2019-05-12T13:28:18.864Z,96475.98
2019-05-12T13:30:48.826Z,96477.39
2019-05-12T13:33:18.095Z,96472.70
2019-05-12T13:35:44.684Z,96467.15
2019-05-12T13:38:14.498Z,96468.22
2019-05-12T13:40:44.217Z,96468.03
2019-05-12T13:43:15.466Z,96462.91
2019-05-12T13:45:44.021Z,96468.41
2019-05-12T13:48:15.792Z,96468.39
2019-05-12T13:50:43.436Z,96471.34
2019-05-12T13:53:13.853Z,96481.89
2019-05-12T13:55:47.445Z,96481.52
2019-05-12T13:58:13.603Z,96478.14
2019-05-12T14:00:50.895Z,96480.80
2019-05-12T14:03:13.987Z,96491.86
2019-05-12T14:05:50.371Z,96484.77
2019-05-12T14:08:14.613Z,96489.48
2019-05-12T14:10:52.874Z,96491.72
2019-05-12T14:13:14.105Z,96497.30
2019-05-12T14:15:44.320Z,96502.58
2019-05-12T14:18:16.459Z,96490.13
2019-05-12T14:20:45.194Z,96486.09
2019-05-12T14:23:14.920Z,96496.83
2019-05-12T14:25:43.856Z,96490.02
2019-05-12T14:28:16.230Z,96496.76
2019-05-12T14:30:49.737Z,96492.80
2019-05-12T14:33:13.449Z,96490.57
2019-05-12T14:35:45.365Z,96496.73
2019-05-12T14:38:14.236Z,96495.42
2019-05-12T14:40:42.909Z,96501.39
2019-05-12T14:43:16.812Z,96499.53
2019-05-12T14:45:43.913Z,96499.41
2019-05-12T14:48:13.702Z,96502.09
2019-05-12T14:50:44.149Z,96505.17
2019-05-12T14:53:14.459Z,96504.32
2019-05-12T14:55:43.354Z,96518.09
2019-05-12T14:58:15.741Z,96507.49
2019-05-12T15:00:44.580Z,96514.59
2019-05-12T15:03:16.154Z,96508.45
2019-05-12T15:05:47.236Z,96508.11
2019-05-12T15:08:20.250Z,96516.04
2019-05-12T15:10:44.141Z,96508.91
2019-05-12T15:13:13.908Z,96519.38
2019-05-12T15:15:44.097Z,96517.87
2019-05-12T15:18:15.513Z,96510.05
2019-05-12T15:20:49.782Z,96513.78
2019-05-12T15:23:14.416Z,96517.87
2019-05-12T15:25:43.383Z,96514.28
2019-05-12T15:28:14.433Z,96522.00
2019-05-12T15:30:43.603Z,96522.47
2019-05-12T15:33:13.928Z,96517.83
2019-05-12T15:35:43.904Z,96521.12
2019-05-12T15:38:14.900Z,96527.05
2019-05-12T15:40:43.447Z,96520.63
2019-05-12T15:43:13.817Z,96527.31
2019-05-12T15:45:43.648Z,96529.67
2019-05-12T15:48:14.568Z,96526.66
2019-05-12T15:50:45.635Z,96530.14
2019-05-12T15:53:21.793Z,96536.00
2019-05-12T15:55:43.956Z,96536.52
2019-05-12T15:58:14.201Z,96530.63
2019-05-12T16:00:43.847Z,96529.02
2019-05-12T16:03:12.680Z,96535.88
2019-05-12T16:05:41.300Z,96536.88
2019-05-12T16:08:09.953Z,96533.16
2019-05-12T16:10:38.855Z,96541.90
2019-05-12T16:13:07.779Z,96547.05
2019-05-12T16:15:36.646Z,96547.27
2019-05-12T16:18:09.862Z,96546.31
2019-05-12T16:20:35.997Z,96551.09
2019-05-12T16:23:04.711Z,96558.30
2019-05-12T16:25:34.167Z,96560.80
2019-05-12T16:28:07.572Z,96565.76
2019-05-12T16:30:33.968Z,96570.98
2019-05-12T16:33:03.599Z,96558.21
2019-05-12T16:35:34.483Z,96557.63
2019-05-12T16:38:05.852Z,96562.52
2019-05-12T16:40:34.427Z,96564.13
2019-05-12T16:43:03.968Z,96563.02
2019-05-12T16:45:34.066Z,96573.41
2019-05-12T16:48:05.599Z,96574.74
2019-05-12T16:50:34.543Z,96575.09
2019-05-12T16:53:03.382Z,96570.64
2019-05-12T16:55:44.948Z,96571.36
2019-05-12T16:58:03.960Z,96574.53
2019-05-12T17:00:33.872Z,96567.61
2019-05-12T17:03:03.768Z,96569.73
2019-05-12T17:05:33.546Z,96569.23
2019-05-12T17:08:04.221Z,96573.69
2019-05-12T17:10:33.788Z,96578.73
2019-05-12T17:13:07.484Z,96577.61
2019-05-12T17:15:33.816Z,96584.19
2019-05-12T17:18:04.358Z,96582.37
2019-05-12T17:20:33.455Z,96587.20
2019-05-12T17:23:03.439Z,96588.11
2019-05-12T17:25:34.216Z,96592.44
2019-05-12T17:28:03.673Z,96587.88
2019-05-12T17:30:34.384Z,96592.38
2019-05-12T17:33:05.242Z,96587.13
2019-05-12T17:35:35.025Z,96592.88
2019-05-12T17:38:04.464Z,96591.64
2019-05-12T17:40:33.938Z,96591.86
2019-05-12T17:43:06.804Z,96594.25
2019-05-12T17:45:33.218Z,96593.65
2019-05-12T17:48:05.930Z,96594.80
2019-05-12T17:50:34.442Z,96598.09
2019-05-12T17:53:04.544Z,96593.05
2019-05-12T17:55:33.489Z,96595.25
2019-05-12T17:58:04.115Z,96594.99
2019-05-12T18:00:33.619Z,96597.45
2019-05-12T18:03:15.511Z,96600.05
2019-05-12T18:05:33.944Z,96606.09
2019-05-12T18:08:04.238Z,96612.05
2019-05-12T18:10:37.862Z,96610.63
2019-05-12T18:13:03.992Z,96611.36
2019-05-12T18:15:37.916Z,96617.50
2019-05-12T18:18:04.205Z,96608.83
2019-05-12T18:20:40.071Z,96606.96
2019-05-12T18:23:04.381Z,96612.22
2019-05-12T18:25:36.523Z,96618.02
2019-05-12T18:28:03.975Z,96616.41
2019-05-12T18:30:32.637Z,96624.50
2019-05-12T18:33:08.709Z,96626.36
2019-05-12T18:35:31.848Z,96621.00
2019-05-12T18:38:00.560Z,96636.18
2019-05-12T18:40:29.376Z,96637.67
2019-05-12T18:42:58.099Z,96639.71
2019-05-12T18:45:27.020Z,96644.03
2019-05-12T18:47:55.708Z,96639.93
2019-05-12T18:50:27.091Z,96639.38
2019-05-12T18:52:56.296Z,96639.38
2019-05-12T18:55:29.155Z,96637.73
2019-05-12T18:57:55.791Z,96639.98
2019-05-12T19:00:25.898Z,96639.48
2019-05-12T19:02:59.689Z,96639.48
2019-05-12T19:05:30.582Z,96647.97
2019-05-12T19:07:56.338Z,96647.45
2019-05-12T19:10:25.090Z,96647.23
2019-05-12T19:13:01.157Z,96647.23
2019-05-12T19:15:24.473Z,96652.33
2019-05-12T19:17:54.197Z,96662.06
2019-05-12T19:20:24.061Z,96665.94
2019-05-12T19:22:59.358Z,96665.94
2019-05-12T19:25:23.995Z,96658.00
2019-05-12T19:28:04.560Z,96670.41
2019-05-12T19:30:25.453Z,96665.82
2019-05-12T19:32:54.747Z,96678.40
2019-05-12T19:35:23.824Z,96686.94
2019-05-12T19:37:53.814Z,96692.81
2019-05-12T19:40:23.232Z,96690.53
2019-05-12T19:42:53.679Z,96693.78
2019-05-12T19:45:24.892Z,96696.70
2019-05-12T19:47:53.539Z,96706.25
2019-05-12T19:50:22.321Z,96706.16
2019-05-12T19:52:50.998Z,96698.79
2019-05-12T19:55:20.238Z,96696.31
2019-05-12T19:57:50.173Z,96702.52
2019-05-12T20:00:19.259Z,96703.25
2019-05-12T20:02:48.249Z,96700.09
2019-05-12T20:05:17.755Z,96710.16
2019-05-12T20:07:46.396Z,96706.86
2019-05-12T20:10:16.559Z,96705.42
2019-05-12T20:12:57.055Z,96715.32
2019-05-12T20:15:30.174Z,96711.83
2019-05-12T20:17:57.252Z,96717.03
2019-05-12T20:20:35.798Z,96723.68
2019-05-12T20:22:56.293Z,96721.59
2019-05-12T20:25:24.896Z,96722.52
2019-05-12T20:27:56.118Z,96722.03
2019-05-12T20:30:24.229Z,96739.57
2019-05-12T20:32:54.038Z,96740.97
2019-05-12T20:35:22.937Z,96733.43
2019-05-12T20:37:54.520Z,96735.72
2019-05-12T20:40:23.919Z,96748.66
2019-05-12T20:43:07.383Z,96742.08
2019-05-12T20:45:25.824Z,96746.50
2019-05-12T20:47:53.811Z,96748.76
2019-05-12T20:50:24.322Z,96750.48
2019-05-12T20:52:58.807Z,96745.17
2019-05-12T20:55:23.553Z,96746.85
2019-05-12T20:57:56.032Z,96746.21
2019-05-12T21:00:24.404Z,96746.05
2019-05-12T21:02:53.947Z,96747.59
2019-05-12T21:05:23.765Z,96752.95
2019-05-12T21:07:55.879Z,96756.14
2019-05-12T21:10:26.407Z,96755.80
2019-05-12T21:12:54.288Z,96752.03
2019-05-12T21:15:27.748Z,96762.11
2019-05-12T21:18:02.586Z,96764.03
2019-05-12T21:20:24.370Z,96766.98
2019-05-12T21:22:53.823Z,96771.65
2019-05-12T21:25:23.360Z,96770.02
2019-05-12T21:27:53.732Z,96772.20
2019-05-12T21:30:24.658Z,96770.94
2019-05-12T21:33:01.127Z,96772.29
2019-05-12T21:35:26.018Z,96778.19
2019-05-12T21:37:54.784Z,96781.05
2019-05-12T21:40:30.207Z,96786.36
2019-05-12T21:42:54.367Z,96785.31
2019-05-12T21:45:26.589Z,96784.23
2019-05-12T21:47:54.508Z,96785.76
2019-05-12T21:50:32.576Z,96788.13
2019-05-12T21:52:59.424Z,96786.91
2019-05-12T21:55:26.677Z,96794.80
2019-05-12T21:57:55.473Z,96799.94
2019-05-12T22:00:29.137Z,96794.23
2019-05-12T22:03:02.553Z,96800.25
2019-05-12T22:05:47.964Z,96799.61
2019-05-12T22:07:58.800Z,96808.12
2019-05-12T22:10:30.733Z,96808.41
2019-05-12T22:13:00.598Z,96818.26
2019-05-12T22:15:29.651Z,96817.30
2019-05-12T22:18:04.211Z,96824.13
2019-05-12T22:20:32.306Z,96824.30
2019-05-12T22:23:09.149Z,96820.94
2019-05-12T22:25:34.531Z,96824.91
2019-05-12T22:28:07.940Z,96822.30
2019-05-12T22:30:34.934Z,96830.24
2019-05-12T22:33:08.634Z,96829.51
2019-05-12T22:35:34.274Z,96833.69
2019-05-12T22:38:09.386Z,96830.08
2019-05-12T22:40:33.454Z,96832.70
2019-05-12T22:43:06.625Z,96831.33
2019-05-12T22:45:44.448Z,96825.95
2019-05-12T22:48:04.169Z,96835.12
2019-05-12T22:50:35.174Z,96818.50
2019-05-12T22:53:04.463Z,96830.64
2019-05-12T22:55:36.044Z,96825.70
2019-05-12T22:58:04.356Z,96823.88
2019-05-12T23:00:34.133Z,96819.47
2019-05-12T23:03:11.581Z,96825.34
2019-05-12T23:05:33.797Z,96823.65
2019-05-12T23:08:05.935Z,96822.91
2019-05-12T23:10:33.119Z,96823.54
2019-05-12T23:13:04.825Z,96820.38
2019-05-12T23:15:33.495Z,96829.55
2019-05-12T23:18:04.203Z,96831.88
2019-05-12T23:20:33.330Z,96829.38
2019-05-12T23:23:03.864Z,96833.67
2019-05-12T23:25:33.761Z,96832.34
2019-05-12T23:28:08.379Z,96839.50
2019-05-12T23:30:32.840Z,96839.41
2019-05-12T23:33:03.814Z,96839.73
2019-05-12T23:35:34.833Z,96839.16
2019-05-12T23:38:04.430Z,96836.38
2019-05-12T23:40:34.529Z,96832.22
2019-05-12T23:43:04.140Z,96842.74
2019-05-12T23:45:34.010Z,96836.56
2019-05-12T23:48:03.686Z,96841.97
2019-05-12T23:50:32.736Z,96842.69
2019-05-12T23:53:03.841Z,96830.98
2019-05-12T23:55:34.740Z,96835.66
2019-05-12T23:58:04.223Z,96838.77
